Time;durP1;ratioP1;P1;durP2;ratioP2;P2;SDS_P1;SDS_P2;PMS_P1;PMS_P2;Temp;Humidity;BMP_temperature;BMP_pressure;BME280_temperature;BME280_humidity;BME280_pressure;Samples;Min_cycle;Max_cycle;Signal;HPM_P1;HPM_P2
2022/03/13 00:00:28;;;;;;;0.20;0.20;;;;;;;-1.50;45.74;96457.75;5136823;27;20473;-57
2022/03/13 00:02:57;;;;;;;0.20;0.20;;;;;;;-0.98;45.75;96455.44;5137164;27;20423;-57
2022/03/13 00:05:26;;;;;;;0.20;0.20;;;;;;;-0.99;45.43;96454.66;5136959;27;20454;-57
2022/03/13 00:07:56;;;;;;;0.20;0.20;;;;;;;-0.52;45.43;96451.94;5136330;27;20552;-57
2022/03/13 00:10:28;;;;;;;0.20;0.20;;;;;;;-1.34;46.00;96449.88;5136793;27;20415;-57
2022/03/13 00:12:57;;;;;;;0.20;0.20;;;;;;;-0.93;45.49;96442.72;5136841;27;20538;-57
2022/03/13 00:15:33;;;;;;;0.20;0.20;;;;;;;-1.02;45.98;96446.34;5136415;27;20456;-57
2022/03/13 00:18:02;;;;;;;1.67;1.60;;;;;;;-1.17;47.48;96442.84;5136495;27;20534;-56
2022/03/13 00:20:33;;;;;;;0.20;0.20;;;;;;;-1.92;47.34;96449.41;5135760;27;20560;-57
2022/03/13 00:23:03;;;;;;;0.20;0.20;;;;;;;-2.18;46.65;96440.00;5136559;27;20490;-58
2022/03/13 00:25:32;;;;;;;0.93;0.93;;;;;;;-1.85;53.34;96440.78;5136261;27;20426;-57
2022/03/13 00:28:00;;;;;;;0.20;0.20;;;;;;;-0.92;57.78;96439.16;5136328;27;20999;-57
2022/03/13 00:30:28;;;;;;;0.30;0.20;;;;;;;-1.00;48.19;96441.78;5136535;27;20453;-57
2022/03/13 00:33:00;;;;;;;0.20;0.20;;;;;;;-0.55;49.48;96439.25;5136316;27;20431;-57
2022/03/13 00:35:28;;;;;;;0.20;0.20;;;;;;;-0.35;47.49;96427.38;5136064;27;20465;-57
2022/03/13 00:37:57;;;;;;;0.20;0.20;;;;;;;-0.41;45.01;96363.00;5135904;27;20434;-57
2022/03/13 00:40:27;;;;;;;0.20;0.20;;;;;;;-0.02;44.15;96438.34;5136012;27;20974;-57
2022/03/13 00:42:57;;;;;;;0.20;0.20;;;;;;;0.10;45.36;96439.56;5135959;27;20502;-57
2022/03/13 00:45:27;;;;;;;0.20;0.20;;;;;;;-0.10;43.73;96436.63;5135738;27;20502;-57
2022/03/13 00:47:56;;;;;;;0.27;0.27;;;;;;;-1.35;45.24;96436.09;5135850;27;20441;-57
2022/03/13 00:50:25;;;;;;;0.20;0.20;;;;;;;-0.79;46.31;96418.59;5135807;27;20986;-57
2022/03/13 00:52:54;;;;;;;0.30;0.20;;;;;;;-0.67;45.11;96433.66;5135671;27;20475;-57
2022/03/13 00:55:23;;;;;;;0.50;0.50;;;;;;;-0.60;44.75;96415.53;5135936;27;20415;-58
2022/03/13 00:57:54;;;;;;;0.87;0.87;;;;;;;-0.37;43.88;96389.47;5135676;27;20473;-58
2022/03/13 01:00:23;;;;;;;0.87;0.87;;;;;;;-0.44;45.83;96431.06;5135648;27;20466;-58
2022/03/13 01:02:51;;;;;;;0.20;0.17;;;;;;;-0.47;45.51;96434.00;5135518;27;21004;-57
2022/03/13 01:05:23;;;;;;;0.20;0.20;;;;;;;-1.62;47.11;96340.31;5135852;27;20431;-56
2022/03/13 01:07:52;;;;;;;0.20;0.17;;;;;;;-1.24;49.08;96354.31;5135252;27;20473;-56
2022/03/13 01:10:22;;;;;;;0.20;0.20;;;;;;;-0.27;48.19;96419.50;5134148;27;20993;-56
2022/03/13 01:12:53;;;;;;;0.20;0.20;;;;;;;-0.39;46.64;96420.91;5135984;27;20435;-57
2022/03/13 01:15:22;;;;;;;0.43;0.43;;;;;;;-0.01;46.02;96421.75;5135413;27;20459;-58
2022/03/13 01:17:50;;;;;;;0.20;0.20;;;;;;;0.02;45.29;96417.97;5135636;27;20418;-57
2022/03/13 01:20:22;;;;;;;0.20;0.10;;;;;;;0.06;44.44;96403.59;5135255;27;21043;-57
2022/03/13 01:22:51;;;;;;;0.20;0.20;;;;;;;-0.03;47.85;96408.88;5135376;27;20958;-57
2022/03/13 01:25:20;;;;;;;0.20;0.20;;;;;;;0.20;46.87;96408.03;5135159;27;20989;-56
2022/03/13 01:27:49;;;;;;;0.30;0.30;;;;;;;-0.11;45.94;96371.69;5135471;27;20426;-56
2022/03/13 01:30:19;;;;;;;0.20;0.20;;;;;;;-0.48;46.57;96390.69;5135024;27;20446;-57
2022/03/13 01:32:53;;;;;;;0.20;0.20;;;;;;;-0.90;46.26;96403.34;5135306;27;20474;-57
2022/03/13 01:35:24;;;;;;;0.20;0.20;;;;;;;-1.89;49.85;96403.09;5134882;27;20482;-56
2022/03/13 01:37:53;;;;;;;0.20;0.20;;;;;;;-1.90;49.38;96382.50;5134833;27;20466;-56
2022/03/13 01:40:24;;;;;;;0.20;0.20;;;;;;;-1.74;49.22;96401.44;5134864;27;20462;-56
2022/03/13 01:42:54;;;;;;;0.20;0.20;;;;;;;-1.88;49.75;96409.94;5134299;27;20466;-56
2022/03/13 01:45:26;;;;;;;0.20;0.20;;;;;;;-1.11;48.57;96403.16;5134611;27;20510;-56
2022/03/13 01:47:55;;;;;;;0.20;0.20;;;;;;;-1.13;47.57;96405.09;5134953;27;20554;-56
2022/03/13 01:50:24;;;;;;;0.20;0.20;;;;;;;-1.07;48.61;96407.03;5134860;27;20507;-57
2022/03/13 01:52:53;;;;;;;0.20;0.20;;;;;;;-0.57;48.01;96401.34;5134918;27;20504;-56
2022/03/13 01:55:22;;;;;;;0.30;0.20;;;;;;;-0.58;46.52;96395.31;5134856;27;20510;-57
2022/03/13 01:57:51;;;;;;;0.20;0.20;;;;;;;-1.14;47.62;96399.13;5134701;27;20458;-56
2022/03/13 02:00:20;;;;;;;0.20;0.20;;;;;;;-1.38;48.79;96405.22;5134509;27;20477;-56
2022/03/13 02:02:50;;;;;;;0.20;0.20;;;;;;;-1.62;49.60;96399.31;5134371;27;20425;-56
2022/03/13 02:05:29;;;;;;;0.20;0.20;;;;;;;-1.97;49.90;96400.50;5134484;27;20883;-56
2022/03/13 02:08:00;;;;;;;0.30;0.30;;;;;;;-2.42;49.95;96301.59;5134093;27;20491;-56
2022/03/13 02:10:28;;;;;;;0.20;0.20;;;;;;;-1.46;48.67;96400.03;5134473;27;20451;-56
2022/03/13 02:12:58;;;;;;;0.20;0.20;;;;;;;-1.25;48.20;96401.25;5134182;27;21027;-56
2022/03/13 02:15:31;;;;;;;0.20;0.20;;;;;;;-0.81;46.18;96389.34;5134248;27;20426;-56
2022/03/13 02:18:04;;;;;;;0.20;0.20;;;;;;;-0.44;47.67;96402.41;5134100;27;20471;-56
2022/03/13 02:20:39;;;;;;;0.20;0.20;;;;;;;-1.12;46.63;96391.94;5134084;27;20564;-56
2022/03/13 02:23:17;;;;;;;1.33;1.33;;;;;;;-1.30;46.83;96397.41;5133933;27;20434;-56
2022/03/13 02:25:48;;;;;;;0.20;0.13;;;;;;;-1.88;47.39;96391.75;5133485;27;20882;-56
2022/03/13 02:28:20;;;;;;;0.23;0.20;;;;;;;-2.36;49.57;96409.97;5133647;27;20479;-56
2022/03/13 02:30:49;;;;;;;0.20;0.20;;;;;;;-2.38;49.31;96406.75;5134035;27;20440;-57
2022/03/13 02:33:20;;;;;;;0.20;0.20;;;;;;;-2.23;49.06;96394.72;5134433;27;20815;-56
2022/03/13 02:35:53;;;;;;;0.20;0.20;;;;;;;-2.74;50.40;96398.44;5133981;27;20919;-56
2022/03/13 02:38:23;;;;;;;0.20;0.20;;;;;;;-2.82;50.27;96382.88;5133704;27;20458;-56
2022/03/13 02:40:52;;;;;;;0.20;0.20;;;;;;;-2.44;49.78;96392.63;5133608;27;20499;-56
2022/03/13 02:43:21;;;;;;;0.20;0.20;;;;;;;-2.17;49.55;96384.47;5133528;27;20457;-56
2022/03/13 02:45:52;;;;;;;0.20;0.20;;;;;;;-2.29;50.11;96383.19;5133583;27;20903;-56
2022/03/13 02:48:21;;;;;;;0.20;0.20;;;;;;;-2.05;49.01;96387.56;5133556;27;20423;-56
2022/03/13 02:50:50;;;;;;;0.20;0.20;;;;;;;-2.27;49.19;96390.81;5133515;27;20510;-56
2022/03/13 02:53:19;;;;;;;0.20;0.20;;;;;;;-2.54;50.29;96398.94;5133702;27;20547;-56
2022/03/13 02:55:49;;;;;;;0.20;0.20;;;;;;;-2.20;49.64;96404.78;5133509;27;20517;-56
2022/03/13 02:58:18;;;;;;;0.20;0.20;;;;;;;-2.43;49.32;96402.03;5133642;27;20513;-56
2022/03/13 03:00:48;;;;;;;0.20;0.20;;;;;;;-2.34;49.87;96405.44;5133343;27;20981;-56
2022/03/13 03:03:18;;;;;;;0.60;0.60;;;;;;;-2.45;50.10;96411.75;5133634;27;20806;-56
2022/03/13 03:05:47;;;;;;;0.20;0.20;;;;;;;-2.59;49.25;96415.81;5133638;27;21119;-56
2022/03/13 03:08:15;;;;;;;0.20;0.20;;;;;;;-2.67;49.42;96415.81;5132830;27;20489;-56
2022/03/13 03:10:44;;;;;;;0.20;0.20;;;;;;;-2.90;49.40;96343.94;5133323;27;20445;-56
2022/03/13 03:13:15;;;;;;;0.20;0.20;;;;;;;-2.32;50.06;96408.66;5133148;27;20459;-56
2022/03/13 03:15:44;;;;;;;0.30;0.20;;;;;;;-2.95;49.92;96334.06;5133138;27;20999;-56
2022/03/13 03:18:12;;;;;;;0.20;0.20;;;;;;;-2.42;50.00;96408.84;5133480;27;20423;-56
2022/03/13 03:20:41;;;;;;;0.20;0.20;;;;;;;-2.82;51.24;96393.25;5132952;27;20498;-56
2022/03/13 03:23:09;;;;;;;0.30;0.23;;;;;;;-2.74;51.53;96406.22;5133428;27;20497;-56
2022/03/13 03:25:39;;;;;;;0.30;0.30;;;;;;;-2.93;51.73;96414.28;5132982;27;21014;-56
2022/03/13 03:28:15;;;;;;;0.20;0.20;;;;;;;-2.76;51.40;96414.16;5132885;27;20423;-56
2022/03/13 03:30:46;;;;;;;0.30;0.30;;;;;;;-3.54;52.24;96383.50;5133025;28;20513;-56
2022/03/13 03:33:14;;;;;;;0.30;0.20;;;;;;;-2.90;52.01;96414.78;5132649;27;20427;-56
2022/03/13 03:35:43;;;;;;;0.20;0.20;;;;;;;-2.95;51.55;96409.28;5133067;27;20903;-56
2022/03/13 03:38:12;;;;;;;0.20;0.20;;;;;;;-3.03;52.31;96411.84;5133301;28;20471;-56
2022/03/13 03:40:40;;;;;;;0.20;0.20;;;;;;;-3.03;52.85;96404.06;5132802;28;20423;-56
2022/03/13 03:43:09;;;;;;;0.20;0.20;;;;;;;-3.15;52.95;96407.09;5132733;28;20447;-56
2022/03/13 03:45:37;;;;;;;0.20;0.20;;;;;;;-3.01;52.18;96407.28;5132781;28;20967;-56
2022/03/13 03:48:07;;;;;;;0.20;0.20;;;;;;;-3.00;52.28;96411.53;5132882;28;20830;-56
2022/03/13 03:50:36;;;;;;;0.20;0.10;;;;;;;-2.80;52.06;96401.66;5132823;28;20456;-56
2022/03/13 03:53:05;;;;;;;0.30;0.30;;;;;;;-2.96;52.15;96399.84;5133025;28;20876;-56
2022/03/13 03:55:33;;;;;;;3.10;1.27;;;;;;;-3.02;52.71;96395.31;5132723;28;20452;-56
2022/03/13 03:58:01;;;;;;;0.40;0.40;;;;;;;-2.96;52.49;96407.63;5132842;28;20447;-56
2022/03/13 04:00:30;;;;;;;0.30;0.20;;;;;;;-3.04;52.58;96402.47;5133019;28;20425;-57
2022/03/13 04:03:01;;;;;;;0.37;0.37;;;;;;;-2.90;51.98;96401.81;5133065;27;20463;-57
2022/03/13 04:05:32;;;;;;;0.20;0.20;;;;;;;-2.63;51.44;96401.53;5132864;27;20468;-57
2022/03/13 04:08:00;;;;;;;0.20;0.20;;;;;;;-3.29;53.14;96403.34;5132407;28;20557;-57
2022/03/13 04:10:29;;;;;;;0.20;0.10;;;;;;;-3.21;53.52;96393.00;5132961;28;20414;-57
2022/03/13 04:12:57;;;;;;;0.20;0.10;;;;;;;-3.03;53.26;96404.06;5132259;28;20426;-57
2022/03/13 04:15:26;;;;;;;0.20;0.13;;;;;;;-2.79;51.40;96398.94;5132197;28;20431;-57
2022/03/13 04:17:55;;;;;;;0.20;0.10;;;;;;;-2.52;49.95;96399.59;5132318;28;20422;-57
2022/03/13 04:20:24;;;;;;;0.20;0.13;;;;;;;-2.73;49.47;96398.28;5132304;28;20462;-57
2022/03/13 04:22:54;;;;;;;0.23;0.17;;;;;;;-3.00;50.82;96411.53;5132334;28;21203;-55
2022/03/13 04:25:23;;;;;;;0.20;0.20;;;;;;;-3.30;51.63;96399.94;5132085;28;20514;-57
2022/03/13 04:27:51;;;;;;;0.20;0.20;;;;;;;-3.25;51.36;96409.84;5132268;28;20483;-57
2022/03/13 04:30:21;;;;;;;0.20;0.20;;;;;;;-3.33;52.69;96413.22;5132276;28;20509;-56
2022/03/13 04:32:49;;;;;;;0.20;0.20;;;;;;;-3.15;52.15;96423.47;5132573;28;20450;-55
2022/03/13 04:35:17;;;;;;;0.20;0.20;;;;;;;-2.99;52.07;96422.72;5132213;28;20514;-55
2022/03/13 04:37:46;;;;;;;0.20;0.20;;;;;;;-2.99;51.40;96420.94;5132031;28;20458;-56
2022/03/13 04:40:16;;;;;;;0.20;0.20;;;;;;;-2.93;50.88;96409.09;5132570;27;20483;-56
2022/03/13 04:42:45;;;;;;;0.20;0.10;;;;;;;-2.82;50.30;96417.41;5132232;28;20549;-57
2022/03/13 04:45:14;;;;;;;0.20;0.20;;;;;;;-3.03;50.42;96422.22;5134420;27;20434;-57
2022/03/13 04:47:42;;;;;;;0.30;0.20;;;;;;;-2.68;50.35;96421.94;5135931;27;20906;-57
2022/03/13 04:50:11;;;;;;;0.20;0.20;;;;;;;-2.37;49.92;96414.34;5135794;27;20503;-56
2022/03/13 04:52:39;;;;;;;0.20;0.20;;;;;;;-2.14;49.13;96411.91;5135714;27;20473;-56
2022/03/13 04:55:08;;;;;;;0.20;0.13;;;;;;;-1.78;48.76;96415.75;5134916;27;20986;-57
2022/03/13 04:57:38;;;;;;;0.20;0.10;;;;;;;-1.69;48.42;96406.94;5135895;27;20445;-57
2022/03/13 05:00:08;;;;;;;0.20;0.10;;;;;;;-1.79;49.05;96402.91;5135852;27;20831;-57
2022/03/13 05:02:37;;;;;;;0.30;0.20;;;;;;;-1.83;49.21;96407.66;5135497;27;20465;-57
2022/03/13 05:05:07;;;;;;;0.20;0.20;;;;;;;-1.78;48.78;96404.53;5135944;27;20425;-57
2022/03/13 05:07:38;;;;;;;0.30;0.20;;;;;;;-1.64;49.75;96412.44;5135399;27;20835;-57
2022/03/13 05:10:07;;;;;;;0.20;0.20;;;;;;;-1.94;49.20;96407.97;5135415;27;20471;-57
2022/03/13 05:12:35;;;;;;;0.20;0.20;;;;;;;-1.85;48.94;96393.19;5135052;27;20470;-57
2022/03/13 05:15:06;;;;;;;0.30;0.30;;;;;;;-1.54;48.96;96417.44;5135109;27;20509;-57
2022/03/13 05:17:34;;;;;;;2.17;2.07;;;;;;;-1.77;49.73;96414.75;5135224;27;20919;-57
2022/03/13 05:20:03;;;;;;;1.03;0.77;;;;;;;-1.66;48.87;96411.81;5134992;27;20518;-57
2022/03/13 05:22:31;;;;;;;0.20;0.20;;;;;;;-1.47;48.15;96414.00;5135235;27;20491;-57
2022/03/13 05:25:00;;;;;;;0.33;0.33;;;;;;;-1.42;47.92;96424.72;5135159;27;20448;-57
2022/03/13 05:27:28;;;;;;;0.20;0.20;;;;;;;-1.30;47.48;96418.19;5135241;27;20522;-56
2022/03/13 05:29:57;;;;;;;0.20;0.20;;;;;;;-1.39;47.06;96403.59;5135258;27;20513;-56
2022/03/13 05:32:27;;;;;;;0.20;0.10;;;;;;;-1.92;48.01;96425.03;5135346;27;20484;-56
2022/03/13 05:34:57;;;;;;;2.13;2.13;;;;;;;-2.61;49.79;96414.34;5135114;27;20411;-56
2022/03/13 05:37:25;;;;;;;0.40;0.40;;;;;;;-2.55;50.79;96434.44;5135317;27;20518;-57
2022/03/13 05:39:54;;;;;;;1.40;1.40;;;;;;;-2.47;50.43;96425.88;5134999;27;20419;-57
2022/03/13 05:42:25;;;;;;;0.20;0.20;;;;;;;-2.78;51.45;96420.47;5135035;27;20910;-58
2022/03/13 05:44:54;;;;;;;0.20;0.20;;;;;;;-2.84;52.19;96419.34;5135026;27;20450;-56
2022/03/13 05:47:23;;;;;;;0.20;0.20;;;;;;;-2.58;51.82;96427.00;5134682;27;20513;-56
2022/03/13 05:49:52;;;;;;;0.20;0.20;;;;;;;-2.97;51.70;96335.19;5135027;27;20454;-57
2022/03/13 05:52:21;;;;;;;0.20;0.13;;;;;;;-1.72;50.05;96429.88;5134938;27;20531;-57
2022/03/13 05:57:35;;;;;;;0.20;0.20;;;;;;;-1.94;47.09;96328.25;5134748;27;20446;-57
2022/03/13 06:00:06;;;;;;;0.30;0.20;;;;;;;-1.42;46.32;96429.91;5134540;27;20931;-57
2022/03/13 06:02:38;;;;;;;0.20;0.20;;;;;;;-1.97;46.87;96434.28;5134400;27;21049;-57
2022/03/13 06:05:10;;;;;;;0.30;0.30;;;;;;;-2.24;47.69;96440.63;5134393;27;20466;-57
2022/03/13 06:07:39;;;;;;;0.30;0.20;;;;;;;-2.26;47.75;96444.38;5134177;27;20553;-57
2022/03/13 06:10:14;;;;;;;0.30;0.27;;;;;;;-2.26;47.12;96442.59;5133842;27;20465;-57
2022/03/13 06:12:43;;;;;;;0.30;0.30;;;;;;;-2.65;47.51;96369.75;5134467;27;20491;-57
2022/03/13 06:15:13;;;;;;;0.20;0.20;;;;;;;-2.03;47.15;96442.75;5134032;27;20943;-57
2022/03/13 06:17:42;;;;;;;1.03;0.97;;;;;;;-2.20;47.69;96438.53;5133960;27;20454;-57
2022/03/13 06:20:13;;;;;;;0.20;0.10;;;;;;;-2.22;47.80;96443.06;5134001;27;20454;-56
2022/03/13 06:22:44;;;;;;;0.20;0.20;;;;;;;-2.13;47.69;96431.72;5133855;27;20474;-56
2022/03/13 06:25:13;;;;;;;0.20;0.20;;;;;;;-1.60;47.62;96450.16;5133092;27;21002;-57
2022/03/13 06:27:42;;;;;;;0.20;0.20;;;;;;;-1.23;46.72;96439.13;5134352;27;20469;-57
2022/03/13 06:30:16;;;;;;;0.20;0.20;;;;;;;-1.26;46.83;96430.88;5134663;27;20423;-56
2022/03/13 06:32:48;;;;;;;0.30;0.20;;;;;;;-1.38;46.98;96449.44;5133644;27;20430;-56
2022/03/13 06:35:20;;;;;;;0.20;0.20;;;;;;;-1.19;47.29;96450.03;5132979;27;20419;-57
2022/03/13 06:37:49;;;;;;;0.30;0.30;;;;;;;-0.91;46.91;96446.00;5133575;27;20423;-57
2022/03/13 06:40:20;;;;;;;0.20;0.17;;;;;;;-0.73;46.10;96449.94;5133908;27;20431;-56
2022/03/13 06:42:49;;;;;;;0.20;0.20;;;;;;;-0.85;46.18;96440.91;5133350;27;20876;-56
2022/03/13 06:45:18;;;;;;;0.20;0.20;;;;;;;-0.50;46.06;96455.16;5133679;27;20881;-56
2022/03/13 06:47:49;;;;;;;0.20;0.20;;;;;;;-0.88;46.51;96450.84;5133531;27;20509;-56
2022/03/13 06:50:20;;;;;;;0.30;0.20;;;;;;;-1.21;46.54;96452.78;5133236;27;20942;-56
2022/03/13 06:52:50;;;;;;;0.20;0.10;;;;;;;-0.68;45.74;96445.03;5133649;27;20419;-56
2022/03/13 06:55:21;;;;;;;0.20;0.20;;;;;;;-0.01;44.31;96446.00;5133278;27;20470;-57
2022/03/13 06:57:51;;;;;;;0.20;0.20;;;;;;;0.32;43.94;96443.91;5133596;27;20418;-57
2022/03/13 07:00:20;;;;;;;0.30;0.20;;;;;;;0.36;43.93;96441.75;5132478;27;20521;-58
2022/03/13 07:02:50;;;;;;;0.30;0.20;;;;;;;0.17;43.77;96450.09;5133213;27;20541;-58
2022/03/13 07:05:20;;;;;;;0.20;0.20;;;;;;;0.32;43.44;96449.13;5133088;27;20521;-58
2022/03/13 07:07:49;;;;;;;2.20;2.20;;;;;;;0.81;42.51;96436.34;5132201;27;21010;-58
2022/03/13 07:10:17;;;;;;;0.40;0.40;;;;;;;2.22;40.57;96437.44;5133289;27;20438;-57
2022/03/13 07:12:46;;;;;;;0.30;0.20;;;;;;;1.84;40.30;96434.28;5133237;27;20411;-58
2022/03/13 07:15:15;;;;;;;0.50;0.50;;;;;;;1.96;39.60;96437.19;5133027;27;20514;-58
2022/03/13 07:17:45;;;;;;;0.30;0.27;;;;;;;2.61;38.75;96429.84;5132919;27;20922;-58
2022/03/13 07:20:14;;;;;;;0.30;0.30;;;;;;;3.80;37.39;96422.22;5133108;27;20508;-56
2022/03/13 07:22:45;;;;;;;0.97;0.97;;;;;;;4.38;37.28;96419.81;5132817;27;20458;-55
2022/03/13 07:25:14;;;;;;;0.30;0.30;;;;;;;3.99;36.15;96406.72;5133094;27;20451;-56
2022/03/13 07:27:43;;;;;;;0.40;0.30;;;;;;;4.08;36.49;96421.22;5132910;27;20450;-55
2022/03/13 07:30:14;;;;;;;0.30;0.20;;;;;;;4.07;36.45;96412.56;5132634;27;20480;-56
2022/03/13 07:32:43;;;;;;;0.30;0.20;;;;;;;3.65;37.12;96415.53;5132698;28;20426;-56
2022/03/13 07:35:13;;;;;;;0.67;0.67;;;;;;;4.42;36.86;96405.28;5133001;28;20425;-56
2022/03/13 07:37:41;;;;;;;0.40;0.40;;;;;;;4.56;36.03;96413.91;5132800;28;20415;-56
2022/03/13 07:40:13;;;;;;;0.40;0.40;;;;;;;3.70;36.91;96413.94;5132146;28;20422;-55
2022/03/13 07:42:41;;;;;;;0.30;0.20;;;;;;;2.84;37.55;96416.47;5132586;28;20483;-55
2022/03/13 07:45:11;;;;;;;0.40;0.30;;;;;;;3.72;36.52;96411.91;5131239;28;20588;-55
2022/03/13 07:47:40;;;;;;;0.30;0.20;;;;;;;3.61;35.91;96305.03;5131967;28;20538;-56
2022/03/13 07:50:11;;;;;;;0.30;0.20;;;;;;;4.14;36.13;96410.75;5131723;27;21102;-54
2022/03/13 07:52:40;;;;;;;0.73;0.73;;;;;;;4.50;35.60;96369.09;5130942;27;20518;-56
2022/03/13 07:55:10;;;;;;;0.70;0.43;;;;;;;4.69;35.30;96408.66;5130918;27;20426;-55
2022/03/13 07:57:39;;;;;;;0.50;0.37;;;;;;;3.50;36.96;96380.81;5130892;28;20422;-55
2022/03/13 08:00:12;;;;;;;0.30;0.20;;;;;;;4.67;36.00;96395.75;5130852;28;20806;-55
2022/03/13 08:02:46;;;;;;;0.40;0.30;;;;;;;5.66;34.29;96401.38;5132411;27;20973;-55
2022/03/13 08:05:18;;;;;;;0.30;0.20;;;;;;;6.10;32.68;96390.75;5132718;28;20422;-55
2022/03/13 08:07:48;;;;;;;1.07;0.33;;;;;;;5.70;32.72;96306.03;5132147;27;20485;-55
2022/03/13 08:10:20;;;;;;;0.30;0.23;;;;;;;5.72;32.40;96347.91;5132310;28;20454;-55
2022/03/13 08:12:49;;;;;;;0.30;0.30;;;;;;;5.97;32.41;96404.00;5132463;27;21095;-54
2022/03/13 08:15:19;;;;;;;1.80;0.50;;;;;;;6.86;30.56;96385.16;5132309;27;20492;-55
2022/03/13 08:17:48;;;;;;;0.90;0.90;;;;;;;6.10;31.25;96308.34;5132434;27;20516;-55
2022/03/13 08:20:16;;;;;;;0.47;0.43;;;;;;;7.82;31.74;96385.97;5136046;27;20429;-54
2022/03/13 08:22:45;;;;;;;0.67;0.50;;;;;;;8.09;30.92;96389.03;5136149;27;20864;-54
2022/03/13 08:25:18;;;;;;;0.40;0.40;;;;;;;8.60;29.72;96386.53;5136126;27;20549;-54
2022/03/13 08:27:48;;;;;;;0.70;0.70;;;;;;;9.38;28.24;96375.50;5136153;27;20418;-54
2022/03/13 08:30:17;;;;;;;0.40;0.40;;;;;;;8.39;29.78;96378.41;5135918;27;20839;-54
2022/03/13 08:32:46;;;;;;;0.80;0.60;;;;;;;8.55;29.40;96373.22;5136317;27;20903;-55
2022/03/13 08:35:15;;;;;;;0.87;0.87;;;;;;;8.81;28.76;96370.09;5136238;27;20611;-55
2022/03/13 08:37:44;;;;;;;1.17;1.17;;;;;;;8.78;29.45;96299.19;5136532;27;20415;-54
2022/03/13 08:40:14;;;;;;;0.83;0.73;;;;;;;10.48;27.20;96354.59;5136013;27;20429;-55
2022/03/13 08:42:42;;;;;;;5.07;0.73;;;;;;;9.67;27.75;96353.25;5136270;27;20422;-55
2022/03/13 08:45:13;;;;;;;0.97;0.93;;;;;;;10.49;27.06;96333.19;5136144;27;20533;-56
2022/03/13 08:47:41;;;;;;;0.73;0.73;;;;;;;11.31;25.26;96341.09;5136149;27;20442;-56
2022/03/13 08:50:11;;;;;;;0.83;0.83;;;;;;;9.11;26.78;96351.41;5135598;27;20419;-56
2022/03/13 08:52:40;;;;;;;0.83;0.83;;;;;;;8.02;28.70;96354.00;5135966;27;20479;-56
2022/03/13 08:55:13;;;;;;;1.27;1.27;;;;;;;8.44;28.41;96281.56;5136056;27;20495;-56
2022/03/13 08:57:43;;;;;;;0.53;0.53;;;;;;;10.02;27.27;96332.69;5135527;27;20818;-56
2022/03/13 09:00:15;;;;;;;0.40;0.30;;;;;;;8.47;28.15;96341.88;5135341;27;20414;-57
2022/03/13 09:02:45;;;;;;;0.30;0.20;;;;;;;9.38;29.00;96327.88;5135659;27;20419;-58
2022/03/13 09:05:13;;;;;;;2.63;2.53;;;;;;;7.97;27.84;96338.03;5135629;27;20466;-56
2022/03/13 09:07:41;;;;;;;1.07;1.07;;;;;;;8.13;28.47;96326.78;5135187;27;20466;-57
2022/03/13 09:10:11;;;;;;;1.10;1.10;;;;;;;7.55;28.64;96335.41;5135563;27;20513;-57
2022/03/13 09:12:41;;;;;;;1.30;1.10;;;;;;;8.09;28.64;96333.56;5135607;27;20473;-56
2022/03/13 09:15:10;;;;;;;0.70;0.70;;;;;;;9.37;28.28;96260.91;5135468;27;20427;-57
2022/03/13 09:17:40;;;;;;;0.40;0.30;;;;;;;8.83;28.84;96327.56;5135501;27;20418;-57
2022/03/13 09:20:11;;;;;;;0.53;0.43;;;;;;;9.35;28.40;96315.09;5135168;27;20898;-58
2022/03/13 09:22:39;;;;;;;0.73;0.50;;;;;;;8.58;28.21;96316.47;5135185;27;20423;-58
2022/03/13 09:25:08;;;;;;;0.70;0.70;;;;;;;8.62;28.69;96322.91;5135309;27;20535;-59
2022/03/13 09:27:37;;;;;;;0.63;0.50;;;;;;;8.67;28.17;96315.91;5135022;27;20418;-59
2022/03/13 09:30:07;;;;;;;0.67;0.67;;;;;;;10.31;27.52;96306.94;5134015;27;20514;-61
2022/03/13 09:32:35;;;;;;;1.50;1.40;;;;;;;11.16;26.50;96285.19;5134758;27;20419;-62
2022/03/13 09:35:06;;;;;;;0.40;0.40;;;;;;;9.60;25.79;96299.69;5135011;27;20472;-64
2022/03/13 09:37:37;;;;;;;19.43;1.07;;;;;;;10.69;25.41;96287.56;5134765;27;20497;-65
2022/03/13 09:40:17;;;;;;;1.03;0.77;;;;;;;11.87;24.41;96284.88;5134250;27;20461;-69
2022/03/13 09:42:45;;;;;;;1.07;1.00;;;;;;;12.05;25.56;96281.03;5134499;27;20445;-68
2022/03/13 09:45:15;;;;;;;0.40;0.30;;;;;;;11.99;24.71;96258.91;5134325;27;20466;-68
2022/03/13 09:47:43;;;;;;;0.53;0.30;;;;;;;12.65;23.53;96273.44;5134821;27;20475;-69
2022/03/13 09:50:14;;;;;;;0.87;0.87;;;;;;;11.61;23.11;96277.72;5134547;27;20440;-66
2022/03/13 09:52:45;;;;;;;2.83;1.13;;;;;;;11.72;22.16;96270.66;5134341;27;20459;-64
2022/03/13 09:55:14;;;;;;;0.60;0.40;;;;;;;12.54;22.23;96253.16;5134545;27;20425;-65
2022/03/13 09:57:46;;;;;;;0.40;0.30;;;;;;;13.29;21.89;96258.00;5134648;27;20419;-62
2022/03/13 10:00:17;;;;;;;1.23;0.30;;;;;;;13.84;20.74;96248.47;5134432;27;20460;-61
2022/03/13 10:02:46;;;;;;;0.40;0.30;;;;;;;14.78;19.58;96234.44;5134450;27;20811;-59
2022/03/13 10:05:18;;;;;;;0.87;0.60;;;;;;;12.99;20.78;96243.78;5134249;27;20462;-60
2022/03/13 10:07:55;;;;;;;0.40;0.30;;;;;;;12.29;21.33;96230.97;5134023;27;20470;-59
2022/03/13 10:10:25;;;;;;;0.40;0.30;;;;;;;14.05;21.80;96227.94;5134204;27;20479;-59
2022/03/13 10:12:53;;;;;;;0.83;0.83;;;;;;;14.43;21.28;96220.16;5134191;27;20419;-59
2022/03/13 10:15:22;;;;;;;0.60;0.50;;;;;;;15.18;20.99;96138.13;5134361;27;20463;-59
2022/03/13 10:17:50;;;;;;;0.30;0.30;;;;;;;13.42;20.22;96210.63;5134060;27;20907;-59
2022/03/13 10:20:25;;;;;;;0.53;0.53;;;;;;;14.64;20.15;96215.56;5134260;27;20427;-60
2022/03/13 10:23:05;;;;;;;0.40;0.40;;;;;;;13.35;19.47;96157.63;5134226;27;20422;-59
2022/03/13 10:25:36;;;;;;;0.53;0.30;;;;;;;14.42;20.36;96196.44;5133683;27;20458;-58
2022/03/13 10:28:21;;;;;;;0.40;0.40;;;;;;;13.16;20.26;96201.78;5134183;27;20491;-59
2022/03/13 10:31:06;;;;;;;0.60;0.50;;;;;;;15.41;18.84;96203.41;5132633;27;20497;-58
2022/03/13 10:33:58;;;;;;;0.40;0.30;;;;;;;14.92;19.04;96198.09;5133544;27;20442;-59
2022/03/13 10:36:34;;;;;;;0.50;0.30;;;;;;;14.51;19.51;96195.59;5133543;27;20450;-59
2022/03/13 10:39:05;;;;;;;0.50;0.30;;;;;;;14.16;19.31;96197.53;5132903;27;20415;-59
2022/03/13 10:41:43;;;;;;;4.70;1.40;;;;;;;15.35;20.35;96189.31;5133348;27;20471;-58
2022/03/13 10:44:15;;;;;;;0.40;0.37;;;;;;;16.60;18.60;96161.69;5133491;27;20418;-58
2022/03/13 10:46:45;;;;;;;0.40;0.30;;;;;;;16.18;18.26;96130.31;5133762;27;20427;-60
2022/03/13 10:49:13;;;;;;;1.80;0.30;;;;;;;15.74;18.77;96181.25;5133443;27;20429;-60
2022/03/13 10:51:46;;;;;;;0.40;0.30;;;;;;;15.31;19.74;96169.53;5133607;27;20455;-60
2022/03/13 10:54:29;;;;;;;1.33;0.40;;;;;;;16.25;18.44;96169.03;5133593;27;20411;-59
2022/03/13 10:57:09;;;;;;;0.50;0.40;;;;;;;16.73;18.58;96155.63;5133565;27;20414;-59
2022/03/13 10:59:40;;;;;;;0.73;0.30;;;;;;;15.39;17.78;96152.94;5133259;27;20422;-59
2022/03/13 11:02:14;;;;;;;0.40;0.30;;;;;;;15.45;18.01;96146.50;5133251;27;20450;-60
2022/03/13 11:04:52;;;;;;;0.70;0.70;;;;;;;14.22;20.42;96137.81;5133101;27;20971;-60
2022/03/13 11:07:24;;;;;;;0.50;0.50;;;;;;;15.04;18.48;96129.94;5134422;27;20466;-60
2022/03/13 11:09:53;;;;;;;0.40;0.30;;;;;;;16.34;18.48;96127.16;5134670;27;20506;-59
2022/03/13 11:12:24;;;;;;;0.60;0.60;;;;;;;15.45;17.92;96118.97;5133379;27;20480;-59
2022/03/13 11:14:54;;;;;;;0.63;0.63;;;;;;;15.10;17.46;96123.47;5132884;27;20471;-59
2022/03/13 11:17:26;;;;;;;0.37;0.27;;;;;;;14.97;18.06;96121.47;5133474;27;20476;-58
2022/03/13 11:19:56;;;;;;;0.70;0.30;;;;;;;16.45;18.22;96111.78;5133670;27;20437;-58
2022/03/13 11:22:28;;;;;;;0.50;0.50;;;;;;;15.76;19.43;96105.06;5134012;27;20511;-58
2022/03/13 11:24:59;;;;;;;0.53;0.53;;;;;;;14.95;19.12;96096.13;5134558;27;20469;-59
2022/03/13 11:27:30;;;;;;;0.40;0.30;;;;;;;16.20;18.80;96106.75;5133958;27;20475;-58
2022/03/13 11:29:59;;;;;;;0.40;0.30;;;;;;;17.06;18.15;96048.31;5133796;27;20427;-58
2022/03/13 11:32:33;;;;;;;0.80;0.80;;;;;;;15.38;19.48;96030.34;5132812;27;20434;-58
2022/03/13 11:35:27;;;;;;;0.57;0.57;;;;;;;16.66;18.69;96080.25;5133501;27;20498;-58
2022/03/13 11:38:17;;;;;;;0.40;0.30;;;;;;;17.84;17.78;96077.03;5133047;28;20427;-58
2022/03/13 11:40:46;;;;;;;0.50;0.40;;;;;;;19.46;17.40;96067.13;5133656;27;20419;-58
2022/03/13 11:43:17;;;;;;;10.67;1.23;;;;;;;18.78;17.16;96062.00;5133023;27;20454;-58
2022/03/13 11:45:53;;;;;;;0.50;0.30;;;;;;;18.22;17.95;96062.34;5132454;28;20462;-58
2022/03/13 11:48:46;;;;;;;0.70;0.47;;;;;;;15.05;19.29;96083.47;5132843;27;20995;-58
2022/03/13 11:51:30;;;;;;;0.57;0.57;;;;;;;15.78;19.41;96072.72;5132985;27;20518;-58